Time,TemperatureF,DewpointF,PressureIn,WindDirection,WindDirectionDegrees,WindSpeedMPH,WindSpeedGustMPH,Humidity,HourlyPrecipIn,Conditions,Clouds,dailyrainin,SoftwareType,DateUTC
2013-05-12 00:05:00,44.0,21.8,30.29,NE,44,3.0,30.0,41,0.00,,,0.00,Wunderground v.1.15,2013-05-12 05:05:00,
2013-05-12 00:10:00,44.1,21.9,30.29,NE,44,3.0,3.0,41,0.00,,,0.00,Wunderground v.1.15,2013-05-12 05:10:00,
2013-05-12 00:20:00,43.8,21.6,30.29,NE,44,2.0,30.0,41,0.00,,,0.00,Wunderground v.1.15,2013-05-12 05:20:00,
2013-05-12 00:25:00,44.5,22.2,30.29,NE,44,3.0,30.0,41,0.00,,,0.00,Wunderground v.1.15,2013-05-12 05:25:00,
2013-05-12 00:30:00,44.4,22.1,30.29,NE,44,3.0,3.0,41,0.00,,,0.00,Wunderground v.1.15,2013-05-12 05:30:00,
2013-05-12 00:35:00,44.6,22.3,30.29,NE,44,3.0,30.0,41,0.00,,,0.00,Wunderground v.1.15,2013-05-12 05:35:00,
2013-05-12 00:45:00,44.9,22.6,30.29,NE,44,3.0,30.0,41,0.00,,,0.00,Wunderground v.1.15,2013-05-12 05:45:00,
2013-05-12 00:50:00,45.3,22.4,30.30,NE,44,3.0,3.0,40,0.00,,,0.00,Wunderground v.1.15,2013-05-12 05:50:00,
2013-05-12 01:00:00,44.9,22.6,30.29,NE,44,2.0,30.0,41,0.00,,,0.00,Wunderground v.1.15,2013-05-12 06:00:00,
2013-05-12 01:05:00,44.3,22.6,30.29,NE,44,2.0,30.0,42,0.00,,,0.00,Wunderground v.1.15,2013-05-12 06:05:00,
2013-05-12 01:10:00,44.0,22.4,30.29,NE,44,2.0,30.0,42,0.00,,,0.00,Wunderground v.1.15,2013-05-12 06:10:00,
2013-05-12 01:15:00,43.6,23.1,30.30,NE,44,2.0,30.0,44,0.00,,,0.00,Wunderground v.1.15,2013-05-12 06:15:00,
2013-05-12 01:25:00,42.9,23.0,30.30,NE,44,2.0,30.0,45,0.00,,,0.00,Wunderground v.1.15,2013-05-12 06:25:00,
2013-05-12 01:30:00,42.8,22.9,30.30,NE,44,2.0,30.0,45,0.00,,,0.00,Wunderground v.1.15,2013-05-12 06:30:00,
2013-05-12 01:40:00,43.1,23.2,30.30,NE,44,3.0,30.0,45,0.00,,,0.00,Wunderground v.1.15,2013-05-12 06:40:00,
2013-05-12 01:45:00,42.9,23.0,30.31,NE,44,3.0,30.0,45,0.00,,,0.00,Wunderground v.1.15,2013-05-12 06:45:00,
2013-05-12 01:50:00,42.6,23.2,30.31,NE,44,3.0,3.0,46,0.00,,,0.00,Wunderground v.1.15,2013-05-12 06:50:00,
2013-05-12 02:00:00,41.0,23.3,30.31,ENE,66,3.0,30.0,49,0.00,,,0.00,Wunderground v.1.15,2013-05-12 07:00:00,
2013-05-12 02:05:00,40.8,23.6,30.31,ENE,66,2.0,30.0,50,0.00,,,0.00,Wunderground v.1.15,2013-05-12 07:05:00,
2013-05-12 02:15:00,41.3,23.6,30.31,ENE,66,2.0,30.0,49,0.00,,,0.00,Wunderground v.1.15,2013-05-12 07:15:00,
2013-05-12 02:20:00,41.5,23.7,30.31,ENE,66,2.0,2.0,49,0.00,,,0.00,Wunderground v.1.15,2013-05-12 07:20:00,
2013-05-12 02:30:00,41.4,23.6,30.32,ENE,66,1.0,30.0,49,0.00,,,0.00,Wunderground v.1.15,2013-05-12 07:30:00,
2013-05-12 02:35:00,41.3,23.6,30.31,ENE,66,1.0,30.0,49,0.00,,,0.00,Wunderground v.1.15,2013-05-12 07:35:00,
2013-05-12 02:40:00,41.2,23.9,30.32,ENE,66,1.0,30.0,50,0.00,,,0.00,Wunderground v.1.15,2013-05-12 07:40:00,
2013-05-12 02:50:00,41.8,23.5,30.31,ENE,66,1.0,1.0,48,0.00,,,0.00,Wunderground v.1.15,2013-05-12 07:50:00,
2013-05-12 02:55:00,42.0,23.2,30.32,ENE,66,0.0,30.0,47,0.00,,,0.00,Wunderground v.1.15,2013-05-12 07:55:00,
2013-05-12 03:00:00,41.9,23.6,30.32,ENE,66,0.0,30.0,48,0.00,,,0.00,Wunderground v.1.15,2013-05-12 08:00:00,
2013-05-12 03:10:00,41.5,23.7,30.32,ENE,66,0.0,30.0,49,0.00,,,0.00,Wunderground v.1.15,2013-05-12 08:10:00,
2013-05-12 03:15:00,41.2,23.9,30.31,ENE,66,0.0,30.0,50,0.00,,,0.00,Wunderground v.1.15,2013-05-12 08:15:00,
2013-05-12 03:25:00,40.6,23.9,30.31,ENE,66,1.0,3.0,51,0.00,,,0.00,Wunderground v.1.15,2013-05-12 08:25:00,
2013-05-12 03:30:00,39.9,23.7,30.32,ENE,66,2.0,2.0,52,0.00,,,0.00,Wunderground v.1.15,2013-05-12 08:30:00,
2013-05-12 03:35:00,39.9,23.7,30.31,ENE,66,2.0,30.0,52,0.00,,,0.00,Wunderground v.1.15,2013-05-12 08:35:00,
2013-05-12 03:45:00,40.6,23.9,30.31,ENE,66,0.0,30.0,51,0.00,,,0.00,Wunderground v.1.15,2013-05-12 08:45:00,
2013-05-12 03:50:00,40.6,23.9,30.32,ENE,66,1.0,30.0,51,0.00,,,0.00,Wunderground v.1.15,2013-05-12 08:50:00,
2013-05-12 04:00:00,41.2,23.9,30.31,ENE,66,0.0,30.0,50,0.00,,,0.00,Wunderground v.1.15,2013-05-12 09:00:00,
2013-05-12 04:05:00,41.3,23.6,30.31,ENE,66,0.0,30.0,49,0.00,,,0.00,Wunderground v.1.15,2013-05-12 09:05:00,
2013-05-12 04:10:00,41.4,23.6,30.31,ENE,66,0.0,30.0,49,0.00,,,0.00,Wunderground v.1.15,2013-05-12 09:10:00,
2013-05-12 04:20:00,41.8,23.5,30.31,ENE,66,0.0,30.0,48,0.00,,,0.00,Wunderground v.1.15,2013-05-12 09:20:00,
2013-05-12 04:25:00,41.7,23.4,30.32,ENE,66,0.0,30.0,48,0.00,,,0.00,Wunderground v.1.15,2013-05-12 09:25:00,
2013-05-12 04:30:00,41.7,23.4,30.32,ENE,66,0.0,30.0,48,0.00,,,0.00,Wunderground v.1.15,2013-05-12 09:30:00,
2013-05-12 04:40:00,41.3,23.1,30.31,ENE,66,0.0,30.0,48,0.00,,,0.00,Wunderground v.1.15,2013-05-12 09:40:00,
2013-05-12 04:45:00,41.4,23.2,30.31,ENE,66,0.0,30.0,48,0.00,,,0.00,Wunderground v.1.15,2013-05-12 09:45:00,
2013-05-12 04:50:00,41.6,23.8,30.31,ENE,66,0.0,30.0,49,0.00,,,0.00,Wunderground v.1.15,2013-05-12 09:50:00,
2013-05-12 05:00:00,42.5,23.7,30.30,ENE,66,1.0,30.0,47,0.00,,,0.00,Wunderground v.1.15,2013-05-12 10:00:00,
2013-05-12 05:05:00,42.8,23.4,30.30,ENE,66,1.0,30.0,46,0.00,,,0.00,Wunderground v.1.15,2013-05-12 10:05:00,
2013-05-12 05:15:00,42.9,24.0,30.30,ENE,66,1.0,30.0,47,0.00,,,0.00,Wunderground v.1.15,2013-05-12 10:15:00,
2013-05-12 05:20:00,42.7,23.8,30.30,ENE,66,1.0,30.0,47,0.00,,,0.00,Wunderground v.1.15,2013-05-12 10:20:00,
2013-05-12 05:25:00,42.4,23.6,30.30,ENE,66,1.0,30.0,47,0.00,,,0.00,Wunderground v.1.15,2013-05-12 10:25:00,
2013-05-12 05:30:00,42.3,24.0,30.30,ENE,66,0.0,30.0,48,0.00,,,0.00,Wunderground v.1.15,2013-05-12 10:30:00,
2013-05-12 05:40:00,42.0,23.7,30.31,ENE,66,0.0,30.0,48,0.00,,,0.00,Wunderground v.1.15,2013-05-12 10:40:00,
2013-05-12 05:45:00,41.9,24.1,30.30,ENE,66,0.0,30.0,49,0.00,,,0.00,Wunderground v.1.15,2013-05-12 10:45:00,
2013-05-12 05:55:00,41.3,23.6,30.31,ENE,66,0.0,30.0,49,0.00,,,0.00,Wunderground v.1.15,2013-05-12 10:55:00,
2013-05-12 06:00:00,41.3,25.4,30.30,ENE,66,0.0,30.0,53,0.00,,,0.00,Wunderground v.1.15,2013-05-12 11:00:00,
2013-05-12 06:05:00,41.0,24.7,30.31,ENE,66,0.0,30.0,52,0.00,,,0.00,Wunderground v.1.15,2013-05-12 11:05:00,
2013-05-12 06:10:00,41.0,23.8,30.30,ENE,66,0.0,30.0,50,0.00,,,0.00,Wunderground v.1.15,2013-05-12 11:10:00,
2013-05-12 06:20:00,41.8,24.0,30.30,ENE,66,2.0,30.0,49,0.00,,,0.00,Wunderground v.1.15,2013-05-12 11:20:00,
2013-05-12 06:25:00,41.5,25.6,30.29,ENE,66,3.0,30.0,53,0.00,,,0.00,Wunderground v.1.15,2013-05-12 11:25:00,
2013-05-12 06:30:00,40.1,25.2,30.29,ENE,78,4.0,30.0,55,0.00,,,0.00,Wunderground v.1.15,2013-05-12 11:30:00,
2013-05-12 06:35:00,39.6,26.0,30.29,ENE,78,5.0,30.0,58,0.00,,,0.00,Wunderground v.1.15,2013-05-12 11:35:00,
2013-05-12 06:40:00,39.3,25.7,30.29,ENE,78,4.0,4.0,58,0.00,,,0.00,Wunderground v.1.15,2013-05-12 11:40:00,
2013-05-12 06:50:00,39.7,25.3,30.30,ENE,78,3.0,30.0,56,0.00,,,0.00,Wunderground v.1.15,2013-05-12 11:50:00,
2013-05-12 06:55:00,40.1,25.2,30.30,ENE,78,3.0,30.0,55,0.00,,,0.00,Wunderground v.1.15,2013-05-12 11:55:00,
2013-05-12 07:00:00,40.3,25.4,30.30,ENE,78,3.0,3.0,55,0.00,,,0.00,Wunderground v.1.15,2013-05-12 12:00:00,
2013-05-12 07:10:00,39.8,27.0,30.30,ENE,78,3.0,30.0,60,0.00,,,0.00,Wunderground v.1.15,2013-05-12 12:10:00,
2013-05-12 07:15:00,39.5,27.2,30.30,East,93,4.0,30.0,61,0.00,,,0.00,Wunderground v.1.15,2013-05-12 12:15:00,
2013-05-12 07:20:00,39.3,27.4,30.30,East,93,5.0,5.0,62,0.00,,,0.00,Wunderground v.1.15,2013-05-12 12:20:00,
2013-05-12 07:25:00,39.6,27.6,30.30,East,93,5.0,30.0,62,0.00,,,0.00,Wunderground v.1.15,2013-05-12 12:25:00,
2013-05-12 07:35:00,41.0,29.0,30.31,East,93,4.0,30.0,62,0.00,,,0.00,Wunderground v.1.15,2013-05-12 12:35:00,
2013-05-12 07:40:00,41.3,28.9,30.31,East,93,4.0,30.0,61,0.00,,,0.00,Wunderground v.1.15,2013-05-12 12:40:00,
2013-05-12 07:45:00,41.9,29.8,30.30,East,93,5.0,30.0,62,0.00,,,0.00,Wunderground v.1.15,2013-05-12 12:45:00,
2013-05-12 07:55:00,44.0,29.7,30.31,ESE,109,6.0,7.0,57,0.00,,,0.00,Wunderground v.1.15,2013-05-12 12:55:00,
2013-05-12 08:00:00,44.5,29.3,30.31,ESE,111,5.0,30.0,55,0.00,,,0.00,Wunderground v.1.15,2013-05-12 13:00:00,
2013-05-12 08:05:00,44.9,29.2,30.31,ESE,115,5.0,30.0,54,0.00,,,0.00,Wunderground v.1.15,2013-05-12 13:05:00,
2013-05-12 08:10:00,45.1,30.3,30.31,ESE,115,5.0,5.0,56,0.00,,,0.00,Wunderground v.1.15,2013-05-12 13:10:00,
2013-05-12 08:20:00,46.8,29.6,30.30,SE,139,6.0,30.0,51,0.00,,,0.00,Wunderground v.1.15,2013-05-12 13:20:00,
2013-05-12 08:25:00,47.7,27.9,30.30,SE,145,8.0,30.0,46,0.00,,,0.00,Wunderground v.1.15,2013-05-12 13:25:00,
2013-05-12 08:30:00,48.6,27.6,30.30,SSE,149,9.0,30.0,44,0.00,,,0.00,Wunderground v.1.15,2013-05-12 13:30:00,
2013-05-12 08:35:00,49.1,29.2,30.30,SE,144,10.0,30.0,46,0.00,,,0.00,Wunderground v.1.15,2013-05-12 13:35:00,
2013-05-12 08:40:00,49.3,27.2,30.30,SSE,154,11.0,11.0,42,0.00,,,0.00,Wunderground v.1.15,2013-05-12 13:40:00,
2013-05-12 08:50:00,50.6,25.9,30.29,SE,138,12.0,12.0,38,0.00,,,0.00,Wunderground v.1.15,2013-05-12 13:50:00,
2013-05-12 08:55:00,51.0,26.3,30.29,SE,130,13.0,15.0,38,0.00,,,0.00,Wunderground v.1.15,2013-05-12 13:55:00,
2013-05-12 09:00:00,51.3,27.2,30.29,SSE,150,14.0,30.0,39,0.00,,,0.00,Wunderground v.1.15,2013-05-12 14:00:00,
2013-05-12 09:05:00,51.9,26.4,30.28,ESE,122,13.0,30.0,37,0.00,,,0.00,Wunderground v.1.15,2013-05-12 14:05:00,
2013-05-12 09:15:00,52.4,26.9,30.28,SE,140,14.0,30.0,37,0.00,,,0.00,Wunderground v.1.15,2013-05-12 14:15:00,
2013-05-12 09:20:00,52.4,26.2,30.29,SE,137,14.0,14.0,36,0.00,,,0.00,Wunderground v.1.15,2013-05-12 14:20:00,
2013-05-12 09:25:00,53.0,27.4,30.29,SE,137,13.0,16.0,37,0.00,,,0.00,Wunderground v.1.15,2013-05-12 14:25:00,
2013-05-12 09:30:00,53.2,26.2,30.29,SE,145,13.0,30.0,35,0.00,,,0.00,Wunderground v.1.15,2013-05-12 14:30:00,
2013-05-12 09:40:00,54.0,26.2,30.29,SSE,150,13.0,30.0,34,0.00,,,0.00,Wunderground v.1.15,2013-05-12 14:40:00,
2013-05-12 09:45:00,54.3,26.5,30.28,SSE,151,13.0,30.0,34,0.00,,,0.00,Wunderground v.1.15,2013-05-12 14:45:00,
2013-05-12 09:50:00,53.5,25.8,30.28,SE,125,13.0,30.0,34,0.00,,,0.00,Wunderground v.1.15,2013-05-12 14:50:00,
2013-05-12 09:55:00,54.1,26.3,30.28,SE,131,13.0,30.0,34,0.00,,,0.00,Wunderground v.1.15,2013-05-12 14:55:00,
2013-05-12 10:05:00,55.2,25.8,30.28,SE,131,14.0,30.0,32,0.00,,,0.00,Wunderground v.1.15,2013-05-12 15:05:00,
2013-05-12 10:10:00,55.6,26.9,30.27,SE,130,14.0,14.0,33,0.00,,,0.00,Wunderground v.1.15,2013-05-12 15:10:00,
2013-05-12 10:20:00,56.4,26.9,30.27,SE,142,14.0,30.0,32,0.00,,,0.00,Wunderground v.1.15,2013-05-12 15:20:00,
2013-05-12 10:25:00,56.4,26.9,30.27,SE,139,14.0,30.0,32,0.00,,,0.00,Wunderground v.1.15,2013-05-12 15:25:00,
2013-05-12 10:30:00,55.7,25.5,30.27,SE,145,15.0,30.0,31,0.00,,,0.00,Wunderground v.1.15,2013-05-12 15:30:00,
2013-05-12 10:35:00,56.0,25.8,30.27,SE,133,15.0,30.0,31,0.00,,,0.00,Wunderground v.1.15,2013-05-12 15:35:00,
2013-05-12 10:45:00,56.1,25.8,30.27,SE,135,15.0,30.0,31,0.00,,,0.00,Wunderground v.1.15,2013-05-12 15:45:00,
2013-05-12 10:50:00,56.0,25.8,30.27,SE,132,15.0,30.0,31,0.00,,,0.00,Wunderground v.1.15,2013-05-12 15:50:00,
2013-05-12 10:55:00,56.1,26.6,30.27,SE,124,15.0,30.0,32,0.00,,,0.00,Wunderground v.1.15,2013-05-12 15:55:00,
2013-05-12 11:00:00,57.4,27.7,30.26,SSE,155,14.0,30.0,32,0.00,,,0.00,Wunderground v.1.15,2013-05-12 16:00:00,
2013-05-12 11:05:00,57.7,28.0,30.26,SSE,153,14.0,30.0,32,0.00,,,0.00,Wunderground v.1.15,2013-05-12 16:05:00,
2013-05-12 11:15:00,57.7,28.0,30.26,SSE,148,16.0,23.0,32,0.00,,,0.00,Wunderground v.1.15,2013-05-12 16:15:00,
2013-05-12 11:20:00,57.7,28.0,30.26,SE,132,16.0,16.0,32,0.00,,,0.00,Wunderground v.1.15,2013-05-12 16:20:00,
2013-05-12 11:25:00,57.5,27.1,30.26,SE,132,16.0,20.0,31,0.00,,,0.00,Wunderground v.1.15,2013-05-12 16:25:00,
2013-05-12 11:30:00,59.0,28.4,30.26,SE,138,16.0,30.0,31,0.00,,,0.00,Wunderground v.1.15,2013-05-12 16:30:00,
2013-05-12 11:35:00,58.6,28.0,30.26,SE,145,16.0,30.0,31,0.00,,,0.00,Wunderground v.1.15,2013-05-12 16:35:00,
2013-05-12 11:45:00,59.6,28.1,30.25,SSE,157,16.0,30.0,30,0.00,,,0.00,Wunderground v.1.15,2013-05-12 16:45:00,
2013-05-12 11:50:00,59.0,27.6,30.25,SSE,148,16.0,16.0,30,0.00,,,0.00,Wunderground v.1.15,2013-05-12 16:50:00,
2013-05-12 11:55:00,59.5,28.0,30.25,SE,130,15.0,30.0,30,0.00,,,0.00,Wunderground v.1.15,2013-05-12 16:55:00,
2013-05-12 12:00:00,60.5,28.9,30.25,SE,144,15.0,15.0,30,0.00,,,0.00,Wunderground v.1.15,2013-05-12 17:00:00,
2013-05-12 12:05:00,60.5,28.9,30.25,SE,124,15.0,16.0,30,0.00,,,0.00,Wunderground v.1.15,2013-05-12 17:05:00,
2013-05-12 12:15:00,60.6,29.8,30.24,SE,145,14.0,30.0,31,0.00,,,0.00,Wunderground v.1.15,2013-05-12 17:15:00,
2013-05-12 12:20:00,61.0,30.1,30.24,SSE,155,15.0,15.0,31,0.00,,,0.00,Wunderground v.1.15,2013-05-12 17:20:00,
2013-05-12 12:25:00,61.2,30.3,30.24,SE,129,15.0,30.0,31,0.00,,,0.00,Wunderground v.1.15,2013-05-12 17:25:00,
2013-05-12 12:35:00,61.2,30.3,30.24,SSE,168,15.0,30.0,31,0.00,,,0.00,Wunderground v.1.15,2013-05-12 17:35:00,
2013-05-12 12:40:00,61.4,30.5,30.24,SE,141,14.0,14.0,31,0.00,,,0.00,Wunderground v.1.15,2013-05-12 17:40:00,
2013-05-12 12:45:00,61.7,30.7,30.24,SE,136,13.0,30.0,31,0.00,,,0.00,Wunderground v.1.15,2013-05-12 17:45:00,
2013-05-12 12:50:00,61.7,30.7,30.24,SE,132,13.0,13.0,31,0.00,,,0.00,Wunderground v.1.15,2013-05-12 17:50:00,
2013-05-12 13:00:00,61.7,30.7,30.23,SSE,148,13.0,13.0,31,0.00,,,0.00,Wunderground v.1.15,2013-05-12 18:00:00,
2013-05-12 13:05:00,61.8,30.8,30.23,SSE,167,13.0,30.0,31,0.00,,,0.00,Wunderground v.1.15,2013-05-12 18:05:00,
2013-05-12 13:10:00,62.1,31.9,30.23,SE,134,12.0,30.0,32,0.00,,,0.00,Wunderground v.1.15,2013-05-12 18:10:00,
2013-05-12 13:15:00,62.2,31.2,30.23,SE,129,13.0,30.0,31,0.00,,,0.00,Wunderground v.1.15,2013-05-12 18:15:00,
2013-05-12 13:25:00,63.1,31.9,30.23,SE,128,14.0,30.0,31,0.00,,,0.00,Wunderground v.1.15,2013-05-12 18:25:00,
2013-05-12 13:30:00,62.8,31.7,30.22,SE,135,13.0,13.0,31,0.00,,,0.00,Wunderground v.1.15,2013-05-12 18:30:00,
2013-05-12 13:35:00,63.7,32.5,30.22,SSE,150,12.0,16.0,31,0.00,,,0.00,Wunderground v.1.15,2013-05-12 18:35:00,
2013-05-12 13:40:00,63.3,32.1,30.22,SE,134,13.0,30.0,31,0.00,,,0.00,Wunderground v.1.15,2013-05-12 18:40:00,
2013-05-12 13:50:00,63.9,32.6,30.22,SSE,168,12.0,30.0,31,0.00,,,0.00,Wunderground v.1.15,2013-05-12 18:50:00,
2013-05-12 13:55:00,63.8,32.6,30.22,South,186,11.0,30.0,31,0.00,,,0.00,Wunderground v.1.15,2013-05-12 18:55:00,
2013-05-12 14:00:00,63.9,32.6,30.21,SE,124,9.0,30.0,31,0.00,,,0.00,Wunderground v.1.15,2013-05-12 19:00:00,
2013-05-12 14:05:00,63.9,32.6,30.21,SSE,148,11.0,30.0,31,0.00,,,0.00,Wunderground v.1.15,2013-05-12 19:05:00,
2013-05-12 14:15:00,64.3,33.8,30.21,SSE,165,9.0,30.0,32,0.00,,,0.00,Wunderground v.1.15,2013-05-12 19:15:00,
2013-05-12 14:20:00,64.8,33.4,30.21,SE,142,8.0,30.0,31,0.00,,,0.00,Wunderground v.1.15,2013-05-12 19:20:00,
2013-05-12 14:25:00,64.5,32.4,30.21,ESE,116,10.0,30.0,30,0.00,,,0.00,Wunderground v.1.15,2013-05-12 19:25:00,
2013-05-12 14:30:00,64.8,33.4,30.20,SSE,163,12.0,30.0,31,0.00,,,0.00,Wunderground v.1.15,2013-05-12 19:30:00,
2013-05-12 14:40:00,64.9,33.5,30.20,SE,146,9.0,9.0,31,0.00,,,0.00,Wunderground v.1.15,2013-05-12 19:40:00,
2013-05-12 14:45:00,64.7,33.3,30.20,South,175,8.0,30.0,31,0.00,,,0.00,Wunderground v.1.15,2013-05-12 19:45:00,
2013-05-12 14:50:00,65.2,34.6,30.19,South,180,10.0,30.0,32,0.00,,,0.00,Wunderground v.1.15,2013-05-12 19:50:00,
2013-05-12 15:00:00,65.2,34.6,30.19,SE,134,11.0,30.0,32,0.00,,,0.00,Wunderground v.1.15,2013-05-12 20:00:00,
2013-05-12 15:05:00,64.8,33.4,30.19,South,182,12.0,30.0,31,0.00,,,0.00,Wunderground v.1.15,2013-05-12 20:05:00,
2013-05-12 15:10:00,65.0,33.6,30.19,SE,146,14.0,30.0,31,0.00,,,0.00,Wunderground v.1.15,2013-05-12 20:10:00,
2013-05-12 15:15:00,64.8,34.2,30.19,ESE,119,13.0,30.0,32,0.00,,,0.00,Wunderground v.1.15,2013-05-12 20:15:00,
2013-05-12 15:20:00,65.7,34.2,30.18,SSE,156,11.0,11.0,31,0.00,,,0.00,Wunderground v.1.15,2013-05-12 20:20:00,
2013-05-12 15:30:00,66.0,35.3,30.18,SE,130,13.0,13.0,32,0.00,,,0.00,Wunderground v.1.15,2013-05-12 20:30:00,
2013-05-12 15:35:00,66.0,34.5,30.18,SSE,153,14.0,14.0,31,0.00,,,0.00,Wunderground v.1.15,2013-05-12 20:35:00,
2013-05-12 15:40:00,65.9,35.2,30.18,SE,142,13.0,13.0,32,0.00,,,0.00,Wunderground v.1.15,2013-05-12 20:40:00,
2013-05-12 15:45:00,66.4,35.6,30.17,SSE,157,16.0,19.0,32,0.00,,,0.00,Wunderground v.1.15,2013-05-12 20:45:00,
2013-05-12 15:55:00,65.8,35.1,30.17,SSE,163,12.0,30.0,32,0.00,,,0.00,Wunderground v.1.15,2013-05-12 20:55:00,
2013-05-12 16:00:00,65.8,35.9,30.17,SSW,196,10.0,10.0,33,0.00,,,0.00,Wunderground v.1.15,2013-05-12 21:00:00,
2013-05-12 16:05:00,66.5,35.7,30.17,South,169,10.0,30.0,32,0.00,,,0.00,Wunderground v.1.15,2013-05-12 21:05:00,
2013-05-12 16:15:00,66.9,36.8,30.17,South,178,9.0,30.0,33,0.00,,,0.00,Wunderground v.1.15,2013-05-12 21:15:00,
2013-05-12 16:20:00,66.8,36.8,30.16,SE,129,11.0,30.0,33,0.00,,,0.00,Wunderground v.1.15,2013-05-12 21:20:00,
2013-05-12 16:25:00,66.8,36.8,30.16,SE,130,13.0,30.0,33,0.00,,,0.00,Wunderground v.1.15,2013-05-12 21:25:00,
2013-05-12 16:30:00,67.4,38.0,30.16,SSE,152,11.0,30.0,34,0.00,,,0.00,Wunderground v.1.15,2013-05-12 21:30:00,
2013-05-12 16:35:00,67.2,37.9,30.16,SSE,156,12.0,30.0,34,0.00,,,0.00,Wunderground v.1.15,2013-05-12 21:35:00,
2013-05-12 16:45:00,67.1,36.2,30.16,SSE,161,11.0,30.0,32,0.00,,,0.00,Wunderground v.1.15,2013-05-12 21:45:00,
2013-05-12 16:50:00,67.4,37.3,30.15,SSE,148,10.0,30.0,33,0.00,,,0.00,Wunderground v.1.15,2013-05-12 21:50:00,
2013-05-12 16:55:00,67.3,37.2,30.15,SSE,148,12.0,30.0,33,0.00,,,0.00,Wunderground v.1.15,2013-05-12 21:55:00,
2013-05-12 17:00:00,67.2,37.1,30.15,SSE,155,15.0,15.0,33,0.00,,,0.00,Wunderground v.1.15,2013-05-12 22:00:00,
2013-05-12 17:10:00,68.1,37.9,30.15,SSE,149,11.0,30.0,33,0.00,,,0.00,Wunderground v.1.15,2013-05-12 22:10:00,
2013-05-12 17:15:00,67.3,37.2,30.15,SE,139,12.0,30.0,33,0.00,,,0.00,Wunderground v.1.15,2013-05-12 22:15:00,
2013-05-12 17:20:00,67.4,37.3,30.15,SE,127,14.0,14.0,33,0.00,,,0.00,Wunderground v.1.15,2013-05-12 22:20:00,
2013-05-12 17:25:00,67.7,38.3,30.14,SE,139,13.0,30.0,34,0.00,,,0.00,Wunderground v.1.15,2013-05-12 22:25:00,
2013-05-12 17:30:00,67.5,37.4,30.14,SSE,167,12.0,12.0,33,0.00,,,0.00,Wunderground v.1.15,2013-05-12 22:30:00,
2013-05-12 17:40:00,67.1,37.8,30.14,SSE,148,10.0,30.0,34,0.00,,,0.00,Wunderground v.1.15,2013-05-12 22:40:00,
2013-05-12 17:45:00,67.3,39.4,30.14,SSE,161,8.0,30.0,36,0.00,,,0.00,Wunderground v.1.15,2013-05-12 22:45:00,
2013-05-12 17:50:00,67.4,38.0,30.14,SSE,157,10.0,10.0,34,0.00,,,0.00,Wunderground v.1.15,2013-05-12 22:50:00,
2013-05-12 17:55:00,67.4,38.0,30.14,SE,146,11.0,11.0,34,0.00,,,0.00,Wunderground v.1.15,2013-05-12 22:55:00,
2013-05-12 18:05:00,67.1,38.5,30.14,SSE,161,9.0,30.0,35,0.00,,,0.00,Wunderground v.1.15,2013-05-12 23:05:00,
2013-05-12 18:10:00,66.9,39.1,30.14,SSW,194,9.0,30.0,36,0.00,,,0.00,Wunderground v.1.15,2013-05-12 23:10:00,
2013-05-12 18:15:00,67.0,39.1,30.13,South,181,10.0,30.0,36,0.00,,,0.00,Wunderground v.1.15,2013-05-12 23:15:00,
2013-05-12 18:20:00,67.1,38.5,30.13,South,174,10.0,10.0,35,0.00,,,0.00,Wunderground v.1.15,2013-05-12 23:20:00,
2013-05-12 18:30:00,66.7,39.6,30.13,SSE,164,9.0,30.0,37,0.00,,,0.00,Wunderground v.1.15,2013-05-12 23:30:00,
2013-05-12 18:35:00,67.0,39.9,30.13,South,188,9.0,30.0,37,0.00,,,0.00,Wunderground v.1.15,2013-05-12 23:35:00,
2013-05-12 18:40:00,66.8,39.7,30.13,SSW,198,10.0,30.0,37,0.00,,,0.00,Wunderground v.1.15,2013-05-12 23:40:00,
2013-05-12 18:45:00,66.4,39.3,30.13,SSE,167,11.0,30.0,37,0.00,,,0.00,Wunderground v.1.15,2013-05-12 23:45:00,
2013-05-12 18:55:00,66.4,39.3,30.13,SSE,164,9.0,30.0,37,0.00,,,0.00,Wunderground v.1.15,2013-05-12 23:55:00,
2013-05-12 19:00:00,66.4,39.3,30.13,SSE,155,10.0,30.0,37,0.00,,,0.00,Wunderground v.1.15,2013-05-13 00:00:00,
2013-05-12 19:05:00,66.1,39.7,30.12,SSE,165,10.0,30.0,38,0.00,,,0.00,Wunderground v.1.15,2013-05-13 00:05:00,
2013-05-12 19:10:00,65.9,40.2,30.13,South,177,9.0,30.0,39,0.00,,,0.00,Wunderground v.1.15,2013-05-13 00:10:00,
2013-05-12 19:20:00,65.7,40.1,30.12,SSE,164,9.0,30.0,39,0.00,,,0.00,Wunderground v.1.15,2013-05-13 00:20:00,
2013-05-12 19:25:00,65.6,40.6,30.12,South,171,10.0,30.0,40,0.00,,,0.00,Wunderground v.1.15,2013-05-13 00:25:00,
2013-05-12 19:30:00,65.4,39.8,30.12,South,173,8.0,30.0,39,0.00,,,0.00,Wunderground v.1.15,2013-05-13 00:30:00,
2013-05-12 19:35:00,65.2,40.3,30.12,South,178,7.0,30.0,40,0.00,,,0.00,Wunderground v.1.15,2013-05-13 00:35:00,
2013-05-12 19:45:00,64.9,40.6,30.12,SSE,166,8.0,30.0,41,0.00,,,0.00,Wunderground v.1.15,2013-05-13 00:45:00,
2013-05-12 19:50:00,64.6,40.4,30.13,SSE,165,8.0,8.0,41,0.00,,,0.00,Wunderground v.1.15,2013-05-13 00:50:00,
2013-05-12 19:55:00,64.4,40.8,30.13,SSE,166,7.0,30.0,42,0.00,,,0.00,Wunderground v.1.15,2013-05-13 00:55:00,
2013-05-12 20:00:00,64.1,40.5,30.12,SSE,163,7.0,7.0,42,0.00,,,0.00,Wunderground v.1.15,2013-05-13 01:00:00,
2013-05-12 20:10:00,63.4,41.1,30.12,SSE,163,8.0,30.0,44,0.00,,,0.00,Wunderground v.1.15,2013-05-13 01:10:00,
2013-05-12 20:15:00,63.0,40.7,30.13,SSE,161,7.0,30.0,44,0.00,,,0.00,Wunderground v.1.15,2013-05-13 01:15:00,
2013-05-12 20:20:00,62.5,40.9,30.13,SSE,158,8.0,8.0,45,0.00,,,0.00,Wunderground v.1.15,2013-05-13 01:20:00,
2013-05-12 20:25:00,61.9,40.3,30.13,SSE,157,8.0,30.0,45,0.00,,,0.00,Wunderground v.1.15,2013-05-13 01:25:00,
2013-05-12 20:35:00,60.9,40.5,30.13,SSE,155,9.0,30.0,47,0.00,,,0.00,Wunderground v.1.15,2013-05-13 01:35:00,
2013-05-12 20:40:00,60.2,40.4,30.13,SSE,153,9.0,9.0,48,0.00,,,0.00,Wunderground v.1.15,2013-05-13 01:40:00,
2013-05-12 20:45:00,59.6,39.9,30.13,SSE,153,8.0,30.0,48,0.00,,,0.00,Wunderground v.1.15,2013-05-13 01:45:00,
2013-05-12 20:55:00,58.9,40.3,30.13,SSE,153,8.0,30.0,50,0.00,,,0.00,Wunderground v.1.15,2013-05-13 01:55:00,
2013-05-12 21:00:00,58.3,40.2,30.13,SSE,153,8.0,30.0,51,0.00,,,0.00,Wunderground v.1.15,2013-05-13 02:00:00,
2013-05-12 21:05:00,57.8,40.3,30.13,SSE,153,8.0,30.0,52,0.00,,,0.00,Wunderground v.1.15,2013-05-13 02:05:00,
2013-05-12 21:10:00,57.5,40.0,30.13,SSE,153,9.0,9.0,52,0.00,,,0.00,Wunderground v.1.15,2013-05-13 02:10:00,
2013-05-12 21:15:00,56.8,39.8,30.13,SSE,150,8.0,30.0,53,0.00,,,0.00,Wunderground v.1.15,2013-05-13 02:15:00,
2013-05-12 21:25:00,56.1,40.1,30.13,SSE,150,8.0,30.0,55,0.00,,,0.00,Wunderground v.1.15,2013-05-13 02:25:00,
2013-05-12 21:30:00,56.0,40.1,30.13,SSE,151,8.0,30.0,55,0.00,,,0.00,Wunderground v.1.15,2013-05-13 02:30:00,
2013-05-12 21:35:00,55.8,39.9,30.13,SSE,151,8.0,30.0,55,0.00,,,0.00,Wunderground v.1.15,2013-05-13 02:35:00,
2013-05-12 21:40:00,55.4,40.0,30.13,SSE,153,8.0,30.0,56,0.00,,,0.00,Wunderground v.1.15,2013-05-13 02:40:00,
2013-05-12 21:45:00,55.3,40.3,30.13,SSE,154,9.0,30.0,57,0.00,,,0.00,Wunderground v.1.15,2013-05-13 02:45:00,
2013-05-12 21:55:00,54.8,40.3,30.13,SSE,150,9.0,30.0,58,0.00,,,0.00,Wunderground v.1.15,2013-05-13 02:55:00,
2013-05-12 22:00:00,54.2,40.2,30.13,SSE,152,9.0,9.0,59,0.00,,,0.00,Wunderground v.1.15,2013-05-13 03:00:00,
2013-05-12 22:05:00,53.4,39.9,30.13,SSE,151,8.0,30.0,60,0.00,,,0.00,Wunderground v.1.15,2013-05-13 03:05:00,
2013-05-12 22:15:00,53.5,40.4,30.13,SSE,147,9.0,30.0,61,0.00,,,0.00,Wunderground v.1.15,2013-05-13 03:15:00,
2013-05-12 22:20:00,53.7,40.6,30.13,SSE,147,10.0,30.0,61,0.00,,,0.00,Wunderground v.1.15,2013-05-13 03:20:00,
2013-05-12 22:25:00,53.5,40.8,30.13,SSE,147,10.0,30.0,62,0.00,,,0.00,Wunderground v.1.15,2013-05-13 03:25:00,
2013-05-12 22:30:00,53.5,40.8,30.13,SSE,152,10.0,30.0,62,0.00,,,0.00,Wunderground v.1.15,2013-05-13 03:30:00,
2013-05-12 22:40:00,53.4,41.1,30.13,SSE,150,10.0,30.0,63,0.00,,,0.00,Wunderground v.1.15,2013-05-13 03:40:00,
2013-05-12 22:45:00,53.2,41.3,30.13,SSE,153,10.0,30.0,64,0.00,,,0.00,Wunderground v.1.15,2013-05-13 03:45:00,
2013-05-12 22:50:00,53.0,41.1,30.13,SSE,154,9.0,30.0,64,0.00,,,0.00,Wunderground v.1.15,2013-05-13 03:50:00,
2013-05-12 22:55:00,52.8,41.0,30.13,SSE,154,9.0,30.0,64,0.00,,,0.00,Wunderground v.1.15,2013-05-13 03:55:00,
2013-05-12 23:05:00,53.0,41.5,30.13,SSE,158,9.0,10.0,65,0.00,,,0.00,Wunderground v.1.15,2013-05-13 04:05:00,
2013-05-12 23:10:00,53.4,41.5,30.13,SSE,152,10.0,30.0,64,0.00,,,0.00,Wunderground v.1.15,2013-05-13 04:10:00,
2013-05-12 23:15:00,53.2,41.7,30.13,SSE,155,10.0,30.0,65,0.00,,,0.00,Wunderground v.1.15,2013-05-13 04:15:00,
2013-05-12 23:25:00,52.8,41.7,30.13,SSE,159,10.0,30.0,66,0.00,,,0.00,Wunderground v.1.15,2013-05-13 04:25:00,
2013-05-12 23:30:00,52.6,41.6,30.13,SSE,157,9.0,30.0,66,0.00,,,0.00,Wunderground v.1.15,2013-05-13 04:30:00,
2013-05-12 23:35:00,52.2,41.2,30.13,SSE,166,9.0,30.0,66,0.00,,,0.00,Wunderground v.1.15,2013-05-13 04:35:00,
2013-05-12 23:40:00,51.7,41.1,30.13,SSE,156,9.0,30.0,67,0.00,,,0.00,Wunderground v.1.15,2013-05-13 04:40:00,
2013-05-12 23:45:00,51.6,41.4,30.13,SSE,161,10.0,30.0,68,0.00,,,0.00,Wunderground v.1.15,2013-05-13 04:45:00,
2013-05-12 23:55:00,51.3,41.5,30.13,SSE,159,10.0,30.0,69,0.00,,,0.00,Wunderground v.1.15,2013-05-13 04:55:00,